Nearby METAR Reports

 

KIAG - Niagara Falls, New York, USA
Distance from station: W 12mi, 20km
Updated: 07/24/2017 11:53pm
Overcast
Overcast
 Wind from NNW
Wind: NNW 8 mph , 13 km/h
Temperature: 64°F , 18°C
Dew Point: 57°F , 14°C
Humidity: 78%
Barometer: 1014.9 hPa
Clouds: Overcast
Visibility: 10 miles , 16 km
Cloud details: Overcast 2200 ft
2017/07/25 03:53 KIAG 250353Z AUTO 34007KT 10SM OVC022 18/14 A2997 RMK AO2 SLP148 T01780144
KBUF - Buffalo/Cheektow, New York, USA
Distance from station: S 13mi, 21km
Updated: 07/25/2017 12:32am
Overcast
Overcast
 Wind from NW
Wind: NW 5 mph , 7 km/h
Temperature: 63°F , 17°C
Dew Point: 59°F , 15°C
Humidity: 88%
Barometer: 1015.6 hPa
Clouds: Overcast
Visibility: 10 miles , 16 km
Cloud details: Overcast 1300 ft
2017/07/25 04:32 KBUF 250432Z 32004KT 10SM OVC013 17/15 A2999 RMK AO2 T01670150
 
KROC - Rochester, New York, USA
Distance from station: E 51mi, 82km
Updated: 07/24/2017 11:54pm
Overcast
Overcast
 Wind from W
Wind: W 7 mph , 11 km/h
Temperature: 64°F , 18°C
Dew Point: 63°F , 17°C
Humidity: 94%
Barometer: 1013.9 hPa
Clouds: Overcast
Visibility: 10 miles , 16 km
Cloud details: Few Clouds 700 ft
Mostly cloudy 1700 ft
Overcast 2700 ft
2017/07/25 03:54 KROC 250354Z 28006KT 10SM FEW007 BKN017 OVC027 18/17 A2994 RMK AO2 SLP139 P0000 T01780167 $
CYSN - St. Catharines A, Ontario, Canada
Distance from station: WNW 25mi, 40km
Updated: 07/24/2017 9:00pm
NOT Current
Overcast
Overcast
 Wind from N
Wind: N 13 mph , 20 km/h
Temperature: 64°F , 18°C
Dew Point: 61°F , 16°C
Humidity: 88%
Barometer: 1012.9 hPa
Clouds: Overcast
Visibility: 15 miles , 24 km
Cloud details: Overcast 2200 ft
2017/07/25 01:00 CYSN 250100Z 36011KT 15SM OVC022 18/16 A2991 RMK SC8 LAST STFD OBS / NEXT 251100UTC SLP129 DENSITY ALT 800FT
 
KOLE - Olean, New York, USA
Distance from station: SSE 63mi, 102km
Updated: 07/25/2017 12:35am
Mist, Overcast
Mist, Overcast
 Wind from NW
Wind: NW 7 mph , 11 km/h
Temperature: 55°F , 13°C
Dew Point: 55°F , 13°C
Humidity: 100%
Barometer: 1016.3 hPa
Summary: Mist
Clouds: Overcast
Visibility: 5 miles , 8 km
Cloud details: Overcast 300 ft
2017/07/25 04:35 KOLE 250435Z AUTO 32006KT 5SM BR OVC003 13/13 A3001 RMK AO2
KJHW - Jamestown, New York, USA
Distance from station: SSW 74mi, 119km
Updated: 07/25/2017 12:35am
Overcast
Overcast
 Wind from NW
Wind: NW 9 mph , 15 km/h
Temperature: 59°F , 15°C
Dew Point: 55°F , 13°C
Humidity: 88%
Barometer: 1016.6 hPa
Clouds: Overcast
Visibility: 5 miles , 8 km
Cloud details: Overcast 500 ft
2017/07/25 04:35 KJHW 250435Z AUTO 31008KT 5SM OVC005 15/13 A3002 RMK AO1
 
CWWZ - Port Weller (mar, Ontario, Canada
Distance from station: WNW 28mi, 45km
Updated: 07/25/2017 12:00am

 Wind from N
Wind: N 18 mph , 30 km/h
Temperature: 64°F , 18°C
Dew Point: 61°F , 16°C
Humidity: 88%
2017/07/25 04:00 CWWZ 250400Z AUTO 36016KT 18/16 RMK AO1 PK WND 36019/0352 SLP152 T01800155 51022
CWPC - Port Colborne(Au, Ontario, Canada
Distance from station: WSW 33mi, 53km
Updated: 07/25/2017 12:00am

 Wind from NNW
Wind: NNW 9 mph , 15 km/h
Temperature: 63°F , 17°C
Dew Point: 59°F , 15°C
Humidity: 88%
2017/07/25 04:00 CWPC 250400Z AUTO 34008KT 17/15 RMK AO1 SLP158 T01690146 51023
 
CXVN - Vineland (au8), Ontario, Canada
Distance from station: W 36mi, 58km
Updated: 07/25/2017 12:00am

 Wind from NNW
Wind: NNW 13 mph , 20 km/h, Gust: 18 mph , 30 km/h
Temperature: 64°F , 18°C
Dew Point: 59°F , 15°C
Humidity: 83%
2017/07/25 04:00 CXVN 250400Z AUTO 34011G16KT 18/15 RMK AO1 PK WND 33017/0331 SLP147 T01750148 51024
CYTZ - Toronto Il Vor, Ontario, Canada
Distance from station: NW 50mi, 81km
Updated: 07/25/2017 12:00am
Overcast
Overcast
 Wind from NNW
Wind: NNW 9 mph , 15 km/h
Temperature: 63°F , 17°C
Dew Point: 57°F , 14°C
Humidity: 83%
Barometer: 1015.6 hPa
Clouds: Overcast
Visibility: 9 miles , 14 km
Cloud details: Few Clouds 1500 ft
Overcast 2900 ft
2017/07/25 04:00 CYTZ 250400Z AUTO 34008KT 300V010 9SM FEW015 OVC029 17/14 A2999 RMK SLP156 DENSITY ALT 500FT
 
CXTO - Toronto City, Ontario, Canada
Distance from station: NW 52mi, 84km
Updated: 07/25/2017 12:00am

 
Temperature: 63°F , 17°C
Dew Point: 57°F , 14°C
Humidity: 83%
2017/07/25 04:00 CXTO 250400Z AUTO 17/14 RMK AO1 SLP156 T01700135 51022
KDKK - Dunkirk, New York, USA
Distance from station: SW 52mi, 84km
Updated: 07/25/2017 12:05am
Overcast
Overcast
 Wind from NNW
Wind: NNW 13 mph , 20 km/h
Temperature: 63°F , 17°C
Dew Point: 61°F , 16°C
Humidity: 94%
Barometer: 1015.9 hPa
Clouds: Overcast
Visibility: 10 miles , 16 km
Cloud details: Overcast 1500 ft
2017/07/25 04:05 KDKK 250405Z AUTO 34011KT 10SM OVC015 17/16 A3000 RMK AO2 T01720156 $
 
CYOO - Oshawa, Ontario, Canada
Distance from station: N 56mi, 90km
Updated: 07/25/2017 12:36am
Overcast
Overcast
 Wind from N
Wind: N 10 mph , 17 km/h
Temperature: 61°F , 16°C
Dew Point: 55°F , 13°C
Humidity: 83%
Barometer: 1015.9 hPa
Clouds: Overcast
Visibility: 9 miles , 14 km
Cloud details: Few Clouds 1800 ft
Overcast 2300 ft
2017/07/25 04:36 CYOO 250436Z AUTO 35009KT 9SM FEW018 OVC023 16/13 A3000 RMK SLP160 DENSITY ALT 600FT
CWWB - Burlington Piers, Ontario, Canada
Distance from station: WNW 56mi, 91km
Updated: 07/25/2017 12:00am

 Wind from NNW
Wind: NNW 13 mph , 20 km/h
Temperature: 64°F , 18°C
Dew Point: 57°F , 14°C
Humidity: 78%
2017/07/25 04:00 CWWB 250400Z AUTO 33011KT 18/14 RMK AO1 PK WND 33017/0328 SLP161 T01780137 51024
 
CYYZ - Toronto/Pearson, Ontario, Canada
Distance from station: NW 60mi, 96km
Updated: 07/25/2017 12:00am
Overcast
Overcast
 Wind from N
Wind: N 15 mph , 24 km/h, Gust: 21 mph , 33 km/h
Temperature: 63°F , 17°C
Dew Point: 55°F , 13°C
Humidity: 77%
Barometer: 1015.9 hPa
Clouds: Overcast
Visibility: 15 miles , 24 km
Cloud details: Overcast 2600 ft
2017/07/25 04:00 CYYZ 250400Z 35013G18KT 15SM OVC026 17/13 A3000 RMK SC8 SLP161 DENSITY ALT 900FT
CYKZ - Toronto Buttonvi, Ontario, Canada
Distance from station: NW 62mi, 99km
Updated: 07/25/2017 12:00am
Overcast
Overcast
 Wind from NNW
Wind: NNW 8 mph , 13 km/h
Temperature: 61°F , 16°C
Dew Point: 57°F , 14°C
Humidity: 88%
Barometer: 1015.9 hPa
Clouds: Overcast
Visibility: 15 miles , 24 km
Cloud details: Few Clouds 1300 ft
Overcast 3000 ft
2017/07/25 04:00 CYKZ 250400Z 34007KT 15SM FEW013 OVC030 16/14 A3000 RMK SF1SC7 SLP160 DENSITY ALT 900FT
 
CXHM - Hamilton Rbg Cs, Ontario, Canada
Distance from station: W 62mi, 100km
Updated: 07/25/2017 12:00am

 Wind from NW
Wind: NW 3 mph , 6 km/h
Temperature: 64°F , 18°C
Dew Point: 61°F , 16°C
Humidity: 88%
2017/07/25 04:00 CXHM 250400Z AUTO 32003KT 18/16 RMK AO1 SLP155 T01810160 51023
KDSV - Dansville, New York, USA
Distance from station: SE 62mi, 100km
Updated: 07/25/2017 12:44am
Overcast
Overcast
 Wind from NW
Wind: NW 10 mph , 17 km/h
Temperature: 63°F , 17°C
Dew Point: 61°F , 16°C
Humidity: 94%
Barometer: 1015.2 hPa
Clouds: Overcast
Visibility: 10 miles , 16 km
Cloud details: Overcast 1400 ft
2017/07/25 04:44 KDSV 250444Z AUTO 32009KT 10SM OVC014 17/16 A2998 RMK AO2 RAE0358 P0000 T01720156
 
CYHM - Hamilton Airport, Ontario, Canada
Distance from station: W 63mi, 101km
Updated: 07/25/2017 12:00am
Overcast
Overcast
 Wind from NNW
Wind: NNW 12 mph , 19 km/h
Temperature: 61°F , 16°C
Dew Point: 57°F , 14°C
Humidity: 88%
Barometer: 1016.6 hPa
Clouds: Overcast
Visibility: 15 miles , 24 km
Cloud details: Few Clouds 1700 ft
Overcast 2800 ft
2017/07/25 04:00 CYHM 250400Z 33010KT 15SM FEW017 OVC028 16/14 A3002 RMK SC1SC7 SLP166 DENSITY ALT 1000FT
CWNC - Cobourg (mars), Ontario, Canada
Distance from station: NNE 63mi, 102km
Updated: 07/25/2017 12:00am

 Wind from N
Wind: N 5 mph , 7 km/h
Temperature: 61°F , 16°C
Dew Point: 55°F , 13°C
Humidity: 83%
2017/07/25 04:00 CWNC 250400Z AUTO 36004KT 16/13 RMK AO1 SLP138 T01640128 51022